Monday, August 20, 2018, 8:01 PM EDT
Back to Local

KPHL, Philadelphia International Airpt

Location: Philadelphia, PA, United States Lat: 39.867
Local Time: 8:01 PM EDT ( 0:01 GMT) Lon: -75.233
Time Zone: US/Eastern Elev: 19 ft

Show me the last for .
Show Decoded

2018-08-20 18:54 METAR KPHL 202254Z 09006KT 10SM BKN033 BKN070 24/18 A3010 RMK AO2 SLP192
                 T02390178 $ =
2018-08-20 17:54 METAR KPHL 202154Z 08006KT 10SM SCT028 BKN042 BKN065 24/18 A3010 RMK AO2 SLP191
                 T02390178 $ =
2018-08-20 16:54 METAR KPHL 202054Z 07003KT 10SM SCT025 BKN042 BKN065 25/18 A3010 RMK AO2 SLP192
                 T02500183 57009 $ =
2018-08-20 15:54 METAR KPHL 201954Z 14004KT 10SM SCT030 BKN044 OVC065 23/18 A3011 RMK AO2 SLP194
                 T02330183 $ =
2018-08-20 14:54 METAR KPHL 201854Z 09005KT 10SM BKN034 OVC060 24/17 A3012 RMK AO2 SLP199
                 T02390172 $ =
2018-08-20 13:54 METAR KPHL 201754Z 09007KT 10SM BKN034 OVC150 24/18 A3013 RMK AO2 SLP201
                 T02440178 10244 20200 50000 $ =
2018-08-20 12:54 METAR KPHL 201654Z 10006KT 10SM OVC030 24/17 A3013 RMK AO2 SLP201 T02390172 $ =
2018-08-20 11:54 METAR KPHL 201554Z 09006KT 10SM SCT029 OVC034 23/17 A3013 RMK AO2 SLP203
                 T02330172 $ =
2018-08-20 10:54 METAR KPHL 201454Z 07007KT 10SM FEW022 BKN031 BKN200 23/17 A3013 RMK AO2 SLP201
                 T02330172 51007 $ =
2018-08-20 09:54 METAR KPHL 201354Z 06008KT 10SM SCT018 SCT042 SCT070 23/17 A3011 RMK AO2 SLP197
                 T02280172 $ =
2018-08-20 08:54 METAR KPHL 201254Z 08009KT 10SM FEW016 SCT037 OVC044 21/17 A3012 RMK AO2 SLP199
                 T02110167 $ =
2018-08-20 07:54 METAR KPHL 201154Z 05009KT 10SM FEW015 BKN037 BKN070 20/17 A3011 RMK AO2 SLP194
                 60000 70034 T02000167 10200 20189 51004 $ =
2018-08-20 06:54 METAR KPHL 201054Z 04007KT 10SM SCT030 BKN037 BKN070 19/17 A3010 RMK AO2
                 RAB0955E06 SLP193 P0000 T01940167 $ =
2018-08-20 05:54 METAR KPHL 200954Z 05006KT 10SM OVC039 19/17 A3010 RMK AO2 RAB07E40 SLP193 P0000
                 T01940167 $ =
2018-08-20 04:54 METAR KPHL 200854Z 06005KT 10SM BKN037 OVC050 20/17 A3010 RMK AO2 SLP190
                 T02000172 53003 $ =
2018-08-20 03:54 METAR KPHL 200754Z 07006KT 9SM OVC038 20/17 A3009 RMK AO2 SLP188 T02000172 $ =
2018-08-20 02:54 METAR KPHL 200654Z 04006KT 9SM BKN038 BKN050 OVC065 19/18 A3007 RMK AO2 SLP182
                 T01940178 $ =
2018-08-20 01:54 METAR KPHL 200554Z 05006KT 9SM FEW025 OVC036 19/17 A3008 RMK AO2 SLP187 60008
                 T01940167 10200 20189 58001 $ =
2018-08-20 00:54 METAR KPHL 200454Z 06005KT 7SM FEW027 OVC036 19/17 A3009 RMK AO2 SLP188
                 T01940172 402330189 $ =
2018-08-20 00:16 METAR KPHL 200416Z 07010KT 7SM SCT028 OVC038 19/17 A3009 RMK AO2 T01940167 $ =
2018-08-19 23:54 METAR KPHL 200354Z 07009KT 5SM BR BKN023 OVC030 19/17 A3009 RMK AO2 RAE44 SLP188
                 P0001 T01890167 $ =
2018-08-19 23:48 METAR KPHL 200348Z 06011G18KT 5SM BR BKN023 OVC030 19/17 A3009 RMK AO2 RAE44
                 P0001 $ =
2018-08-19 22:54 METAR KPHL 200254Z 09011KT 6SM -RA BR OVC031 19/17 A3009 RMK AO2 RAB0159 SLP187
                 P0000 60007 T01940172 51016 $ =
2018-08-19 22:44 METAR KPHL 200244Z 08009KT 6SM -RA BR OVC031 19/17 A3008 RMK AO2 RAB0159 P0000
                 T01940172 $ =
2018-08-19 22:35 METAR KPHL 200235Z 09008KT 4SM -RA BR OVC030 19/17 A3008 RMK AO2 RAB0159 P0000
                 T01940172 $ =
2018-08-19 22:21 METAR KPHL 200221Z 09009KT 6SM -RA BR SCT013 OVC028 19/17 A3008 RMK AO2 RAB0159
                 P0000 T01890172 $ =
2018-08-19 22:00 METAR KPHL 200200Z 09011KT 7SM -RA SCT013 OVC028 19/18 A3008 RMK AO2 RAB0159
                 P0000 T01890178 $ =
2018-08-19 21:54 METAR KPHL 200154Z 09008KT 6SM BR FEW008 BKN020 OVC027 19/18 A3008 RMK AO2 RAE52
                 SLP184 P0000 T01940178 $ =
2018-08-19 20:59 METAR KPHL 200059Z 08012KT 6SM -RA BR FEW008 BKN020 OVC027 19/18 A3006 RMK AO2
                 P0000 T01890178 $ =
2018-08-19 20:54 METAR KPHL 200054Z 07010KT 4SM -RA BR BKN013 OVC022 19/18 A3006 RMK AO2 SLP179
                 P0007 T01890178 $ =
2018-08-19 20:24 METAR KPHL 200024Z 06008KT 3SM -RA BR BKN013 OVC022 19/19 A3005 RMK AO2 P0004
                 T01940189 $ =
2018-08-19 20:13 METAR KPHL 200013Z 07007KT 2 1/2SM -RA BR BKN015 OVC022 19/19 A3004 RMK AO2
                 P0002 T01940189 $ =

Support USWX by starting your Amazon purchase here.